sensor_id;sensor_type;location;lat;lon;timestamp;pressure;altitude;pressure_sealevel;temperature;humidity
80627;BME280;69982;51.758;5.784;2023-12-20T00:01:07;101547.40;;;7.68;83.16
80627;BME280;69982;51.758;5.784;2023-12-20T00:03:59;101553.14;;;7.62;83.12
80627;BME280;69982;51.758;5.784;2023-12-20T00:06:39;101551.42;;;7.55;83.30
80627;BME280;69982;51.758;5.784;2023-12-20T00:09:11;101548.35;;;7.48;83.30
80627;BME280;69982;51.758;5.784;2023-12-20T00:11:46;101545.11;;;7.42;83.46
80627;BME280;69982;51.758;5.784;2023-12-20T00:14:18;101545.80;;;7.38;83.36
80627;BME280;69982;51.758;5.784;2023-12-20T00:16:48;101542.85;;;7.34;83.50
80627;BME280;69982;51.758;5.784;2023-12-20T00:19:50;101547.26;;;7.31;83.34
80627;BME280;69982;51.758;5.784;2023-12-20T00:22:36;101551.41;;;7.29;83.40
80627;BME280;69982;51.758;5.784;2023-12-20T00:25:17;101557.60;;;7.28;83.50
80627;BME280;69982;51.758;5.784;2023-12-20T00:27:50;101557.39;;;7.27;83.67
80627;BME280;69982;51.758;5.784;2023-12-20T00:30:29;101551.77;;;7.23;83.79
80627;BME280;69982;51.758;5.784;2023-12-20T00:33:00;101555.39;;;7.20;83.84
80627;BME280;69982;51.758;5.784;2023-12-20T00:35:35;101549.41;;;7.19;83.89
80627;BME280;69982;51.758;5.784;2023-12-20T00:38:22;101542.77;;;7.20;83.79
80627;BME280;69982;51.758;5.784;2023-12-20T00:41:18;101538.13;;;7.22;83.72
80627;BME280;69982;51.758;5.784;2023-12-20T00:43:54;101532.27;;;7.23;83.57
80627;BME280;69982;51.758;5.784;2023-12-20T00:46:24;101532.89;;;7.22;83.58
80627;BME280;69982;51.758;5.784;2023-12-20T00:48:55;101536.65;;;7.20;83.44
80627;BME280;69982;51.758;5.784;2023-12-20T00:51:37;101530.67;;;7.16;83.37
80627;BME280;69982;51.758;5.784;2023-12-20T00:54:07;101522.78;;;7.11;83.29
80627;BME280;69982;51.758;5.784;2023-12-20T00:56:42;101526.99;;;7.09;83.16
80627;BME280;69982;51.758;5.784;2023-12-20T00:59:12;101530.04;;;7.06;83.18
80627;BME280;69982;51.758;5.784;2023-12-20T01:02:03;101535.28;;;7.04;82.92
80627;BME280;69982;51.758;5.784;2023-12-20T01:04:53;101535.91;;;7.03;83.06
80627;BME280;69982;51.758;5.784;2023-12-20T01:07:23;101536.76;;;7.02;83.10
80627;BME280;69982;51.758;5.784;2023-12-20T01:09:55;101536.45;;;6.99;83.04
80627;BME280;69982;51.758;5.784;2023-12-20T01:12:40;101541.20;;;6.96;82.99
80627;BME280;69982;51.758;5.784;2023-12-20T01:15:10;101544.11;;;6.91;83.04
80627;BME280;69982;51.758;5.784;2023-12-20T01:17:47;101545.10;;;6.86;82.97
80627;BME280;69982;51.758;5.784;2023-12-20T01:20:19;101547.48;;;6.83;82.98
80627;BME280;69982;51.758;5.784;2023-12-20T01:23:00;101540.30;;;6.82;82.84
80627;BME280;69982;51.758;5.784;2023-12-20T01:25:33;101542.38;;;6.84;83.03
80627;BME280;69982;51.758;5.784;2023-12-20T01:28:07;101545.42;;;6.86;83.16
80627;BME280;69982;51.758;5.784;2023-12-20T01:30:55;101541.12;;;6.88;83.28
80627;BME280;69982;51.758;5.784;2023-12-20T01:33:28;101545.71;;;6.89;83.22
80627;BME280;69982;51.758;5.784;2023-12-20T01:36:11;101543.60;;;6.89;83.20
80627;BME280;69982;51.758;5.784;2023-12-20T01:38:45;101546.01;;;6.85;83.17
80627;BME280;69982;51.758;5.784;2023-12-20T01:41:36;101547.48;;;6.83;83.24
80627;BME280;69982;51.758;5.784;2023-12-20T01:44:10;101548.48;;;6.79;83.04
80627;BME280;69982;51.758;5.784;2023-12-20T01:46:38;101545.55;;;6.78;82.94
80627;BME280;69982;51.758;5.784;2023-12-20T01:49:11;101546.41;;;6.76;83.03
80627;BME280;69982;51.758;5.784;2023-12-20T01:51:48;101544.18;;;6.77;83.17
80627;BME280;69982;51.758;5.784;2023-12-20T01:54:30;101543.54;;;6.78;83.34
80627;BME280;69982;51.758;5.784;2023-12-20T01:57:06;101544.77;;;6.81;83.39
80627;BME280;69982;51.758;5.784;2023-12-20T01:59:49;101551.29;;;6.82;83.47
80627;BME280;69982;51.758;5.784;2023-12-20T02:02:22;101548.17;;;6.81;83.34
80627;BME280;69982;51.758;5.784;2023-12-20T02:04:54;101537.87;;;6.77;83.19
80627;BME280;69982;51.758;5.784;2023-12-20T02:07:26;101536.84;;;6.72;83.22
80627;BME280;69982;51.758;5.784;2023-12-20T02:10:18;101538.98;;;6.66;83.30
80627;BME280;69982;51.758;5.784;2023-12-20T02:12:53;101539.02;;;6.63;83.19
80627;BME280;69982;51.758;5.784;2023-12-20T02:15:25;101543.48;;;6.62;83.38
80627;BME280;69982;51.758;5.784;2023-12-20T02:18:09;101544.16;;;6.60;83.52
80627;BME280;69982;51.758;5.784;2023-12-20T02:20:41;101546.30;;;6.60;83.50
80627;BME280;69982;51.758;5.784;2023-12-20T02:23:24;101548.11;;;6.58;83.51
80627;BME280;69982;51.758;5.784;2023-12-20T02:26:14;101549.91;;;6.55;83.72
80627;BME280;69982;51.758;5.784;2023-12-20T02:29:04;101545.95;;;6.53;83.75
80627;BME280;69982;51.758;5.784;2023-12-20T02:31:41;101548.23;;;6.49;83.77
80627;BME280;69982;51.758;5.784;2023-12-20T02:34:20;101545.39;;;6.46;83.70
80627;BME280;69982;51.758;5.784;2023-12-20T02:36:58;101543.91;;;6.44;83.82
80627;BME280;69982;51.758;5.784;2023-12-20T02:39:40;101537.64;;;6.44;83.58
80627;BME280;69982;51.758;5.784;2023-12-20T02:42:13;101541.56;;;6.44;83.73
80627;BME280;69982;51.758;5.784;2023-12-20T02:45:02;101536.80;;;6.43;83.65
80627;BME280;69982;51.758;5.784;2023-12-20T02:47:36;101534.38;;;6.40;83.69
80627;BME280;69982;51.758;5.784;2023-12-20T02:50:20;101535.06;;;6.36;83.66
80627;BME280;69982;51.758;5.784;2023-12-20T02:52:53;101532.65;;;6.30;83.85
80627;BME280;69982;51.758;5.784;2023-12-20T02:55:42;101532.29;;;6.28;83.84
80627;BME280;69982;51.758;5.784;2023-12-20T02:58:11;101530.37;;;6.25;84.06
80627;BME280;69982;51.758;5.784;2023-12-20T03:00:44;101532.75;;;6.25;84.06
80627;BME280;69982;51.758;5.784;2023-12-20T03:03:21;101532.11;;;6.26;84.19
80627;BME280;69982;51.758;5.784;2023-12-20T03:06:20;101529.70;;;6.27;84.32
80627;BME280;69982;51.758;5.784;2023-12-20T03:08:53;101531.00;;;6.26;84.48
80627;BME280;69982;51.758;5.784;2023-12-20T03:11:28;101530.17;;;6.23;84.51
80627;BME280;69982;51.758;5.784;2023-12-20T03:14:01;101524.92;;;6.21;84.73
80627;BME280;69982;51.758;5.784;2023-12-20T03:16:34;101516.37;;;6.23;84.86
80627;BME280;69982;51.758;5.784;2023-12-20T03:19:17;101513.36;;;6.26;84.89
80627;BME280;69982;51.758;5.784;2023-12-20T03:22:16;101508.06;;;6.32;84.76
80627;BME280;69982;51.758;5.784;2023-12-20T03:24:51;101503.92;;;6.36;84.72
80627;BME280;69982;51.758;5.784;2023-12-20T03:27:22;101502.86;;;6.38;84.60
80627;BME280;69982;51.758;5.784;2023-12-20T03:29:57;101499.33;;;6.40;84.65
80627;BME280;69982;51.758;5.784;2023-12-20T03:32:28;101508.02;;;6.41;84.59
80627;BME280;69982;51.758;5.784;2023-12-20T03:35:22;101512.63;;;6.40;84.48
80627;BME280;69982;51.758;5.784;2023-12-20T03:38:04;101512.29;;;6.40;84.36
80627;BME280;69982;51.758;5.784;2023-12-20T03:40:36;101514.56;;;6.43;84.52
80627;BME280;69982;51.758;5.784;2023-12-20T03:43:09;101510.56;;;6.45;84.25
80627;BME280;69982;51.758;5.784;2023-12-20T03:45:51;101507.30;;;6.50;84.22
80627;BME280;69982;51.758;5.784;2023-12-20T03:48:22;101504.60;;;6.50;83.78
80627;BME280;69982;51.758;5.784;2023-12-20T03:51:19;101500.24;;;6.49;83.83
80627;BME280;69982;51.758;5.784;2023-12-20T03:53:53;101498.96;;;6.44;83.75
80627;BME280;69982;51.758;5.784;2023-12-20T03:56:45;101496.27;;;6.40;83.84
80627;BME280;69982;51.758;5.784;2023-12-20T03:59:21;101493.33;;;6.36;83.97
80627;BME280;69982;51.758;5.784;2023-12-20T04:01:54;101499.16;;;6.35;84.14
80627;BME280;69982;51.758;5.784;2023-12-20T04:04:44;101497.39;;;6.35;84.27
80627;BME280;69982;51.758;5.784;2023-12-20T04:07:17;101500.46;;;6.35;84.32
80627;BME280;69982;51.758;5.784;2023-12-20T04:10:10;101504.66;;;6.36;84.33
80627;BME280;69982;51.758;5.784;2023-12-20T04:12:44;101506.84;;;6.36;84.49
80627;BME280;69982;51.758;5.784;2023-12-20T04:15:19;101505.24;;;6.36;84.55
80627;BME280;69982;51.758;5.784;2023-12-20T04:17:53;101506.02;;;6.35;84.46
80627;BME280;69982;51.758;5.784;2023-12-20T04:20:27;101505.59;;;6.34;84.82
80627;BME280;69982;51.758;5.784;2023-12-20T04:22:58;101503.58;;;6.36;84.79
80627;BME280;69982;51.758;5.784;2023-12-20T04:25:43;101499.04;;;6.39;84.81
80627;BME280;69982;51.758;5.784;2023-12-20T04:28:10;101497.96;;;6.43;84.70
80627;BME280;69982;51.758;5.784;2023-12-20T04:31:22;101499.41;;;6.45;84.69
80627;BME280;69982;51.758;5.784;2023-12-20T04:34:00;101499.77;;;6.45;84.71
80627;BME280;69982;51.758;5.784;2023-12-20T04:36:43;101508.58;;;6.45;84.76
80627;BME280;69982;51.758;5.784;2023-12-20T04:39:16;101501.00;;;6.44;84.79
80627;BME280;69982;51.758;5.784;2023-12-20T04:41:55;101497.20;;;6.44;84.77
80627;BME280;69982;51.758;5.784;2023-12-20T04:44:29;101497.48;;;6.47;84.86
80627;BME280;69982;51.758;5.784;2023-12-20T04:47:01;101500.04;;;6.51;84.78
80627;BME280;69982;51.758;5.784;2023-12-20T04:49:34;101494.52;;;6.55;84.82
80627;BME280;69982;51.758;5.784;2023-12-20T04:52:21;101494.93;;;6.59;84.70
80627;BME280;69982;51.758;5.784;2023-12-20T04:54:54;101505.14;;;6.60;84.63
80627;BME280;69982;51.758;5.784;2023-12-20T04:57:27;101501.06;;;6.59;84.50
80627;BME280;69982;51.758;5.784;2023-12-20T05:00:15;101505.83;;;6.58;84.64
80627;BME280;69982;51.758;5.784;2023-12-20T05:02:53;101504.40;;;6.55;84.69
80627;BME280;69982;51.758;5.784;2023-12-20T05:05:26;101499.85;;;6.54;84.74
80627;BME280;69982;51.758;5.784;2023-12-20T05:08:21;101491.20;;;6.56;84.87
80627;BME280;69982;51.758;5.784;2023-12-20T05:10:57;101487.89;;;6.57;84.92
80627;BME280;69982;51.758;5.784;2023-12-20T05:13:47;101488.43;;;6.59;85.01
80627;BME280;69982;51.758;5.784;2023-12-20T05:16:37;101480.88;;;6.64;84.97
80627;BME280;69982;51.758;5.784;2023-12-20T05:19:10;101483.73;;;6.68;84.86
80627;BME280;69982;51.758;5.784;2023-12-20T05:21:44;101481.20;;;6.68;84.95
80627;BME280;69982;51.758;5.784;2023-12-20T05:24:26;101476.55;;;6.68;84.95
80627;BME280;69982;51.758;5.784;2023-12-20T05:26:58;101477.84;;;6.70;84.96
80627;BME280;69982;51.758;5.784;2023-12-20T05:29:30;101472.79;;;6.72;84.88
80627;BME280;69982;51.758;5.784;2023-12-20T05:32:06;101464.83;;;6.75;84.97
80627;BME280;69982;51.758;5.784;2023-12-20T05:34:53;101463.16;;;6.78;84.95
80627;BME280;69982;51.758;5.784;2023-12-20T05:37:44;101456.33;;;6.80;84.93
80627;BME280;69982;51.758;5.784;2023-12-20T05:40:23;101447.13;;;6.80;85.06
80627;BME280;69982;51.758;5.784;2023-12-20T05:42:52;101446.98;;;6.79;84.90
80627;BME280;69982;51.758;5.784;2023-12-20T05:45:26;101455.52;;;6.81;84.72
80627;BME280;69982;51.758;5.784;2023-12-20T05:47:57;101456.80;;;6.83;84.79
80627;BME280;69982;51.758;5.784;2023-12-20T05:50:35;101462.45;;;6.86;84.73
80627;BME280;69982;51.758;5.784;2023-12-20T05:53:22;101474.44;;;6.89;84.68
80627;BME280;69982;51.758;5.784;2023-12-20T05:55:59;101480.70;;;6.90;84.51
80627;BME280;69982;51.758;5.784;2023-12-20T05:58:40;101484.30;;;6.90;84.50
80627;BME280;69982;51.758;5.784;2023-12-20T06:01:10;101488.13;;;6.89;84.38
80627;BME280;69982;51.758;5.784;2023-12-20T06:03:53;101487.45;;;6.88;84.47
80627;BME280;69982;51.758;5.784;2023-12-20T06:06:44;101491.10;;;6.90;84.33
80627;BME280;69982;51.758;5.784;2023-12-20T06:09:18;101499.98;;;6.91;84.12
80627;BME280;69982;51.758;5.784;2023-12-20T06:11:48;101493.48;;;6.94;84.06
80627;BME280;69982;51.758;5.784;2023-12-20T06:14:19;101499.67;;;6.97;84.09
80627;BME280;69982;51.758;5.784;2023-12-20T06:17:18;101497.95;;;7.01;83.72
80627;BME280;69982;51.758;5.784;2023-12-20T06:20:12;101502.19;;;7.02;83.46
80627;BME280;69982;51.758;5.784;2023-12-20T06:23:12;101499.46;;;7.02;83.43
80627;BME280;69982;51.758;5.784;2023-12-20T06:25:44;101494.48;;;7.03;83.08
80627;BME280;69982;51.758;5.784;2023-12-20T06:28:12;101491.71;;;7.06;83.17
80627;BME280;69982;51.758;5.784;2023-12-20T06:30:58;101486.55;;;7.10;83.08
80627;BME280;69982;51.758;5.784;2023-12-20T06:33:49;101478.81;;;7.12;82.83
80627;BME280;69982;51.758;5.784;2023-12-20T06:36:25;101480.95;;;7.12;82.91
80627;BME280;69982;51.758;5.784;2023-12-20T06:38:58;101480.06;;;7.12;82.89
80627;BME280;69982;51.758;5.784;2023-12-20T06:41:33;101478.64;;;7.10;82.69
80627;BME280;69982;51.758;5.784;2023-12-20T06:44:17;101483.43;;;7.10;82.88
80627;BME280;69982;51.758;5.784;2023-12-20T06:46:54;101486.13;;;7.13;82.39
80627;BME280;69982;51.758;5.784;2023-12-20T06:49:37;101486.99;;;7.15;82.44
80627;BME280;69982;51.758;5.784;2023-12-20T06:52:09;101489.74;;;7.17;82.51
80627;BME280;69982;51.758;5.784;2023-12-20T06:54:44;101492.35;;;7.16;82.29
80627;BME280;69982;51.758;5.784;2023-12-20T06:57:11;101490.07;;;7.15;82.32
80627;BME280;69982;51.758;5.784;2023-12-20T06:59:43;101482.21;;;7.14;82.29
80627;BME280;69982;51.758;5.784;2023-12-20T07:02:12;101483.33;;;7.14;82.36
80627;BME280;69982;51.758;5.784;2023-12-20T07:05:08;101482.92;;;7.17;82.38
80627;BME280;69982;51.758;5.784;2023-12-20T07:07:52;101479.94;;;7.18;82.18
80627;BME280;69982;51.758;5.784;2023-12-20T07:10:31;101480.96;;;7.21;82.31
80627;BME280;69982;51.758;5.784;2023-12-20T07:13:04;101471.73;;;7.22;82.15
80627;BME280;69982;51.758;5.784;2023-12-20T07:15:45;101471.98;;;7.21;82.13
80627;BME280;69982;51.758;5.784;2023-12-20T07:18:13;101472.36;;;7.16;82.03
80627;BME280;69982;51.758;5.784;2023-12-20T07:20:42;101471.06;;;7.14;81.97
80627;BME280;69982;51.758;5.784;2023-12-20T07:23:35;101469.02;;;7.13;82.05
80627;BME280;69982;51.758;5.784;2023-12-20T07:26:13;101471.00;;;7.13;81.90
80627;BME280;69982;51.758;5.784;2023-12-20T07:28:42;101470.80;;;7.11;82.10
80627;BME280;69982;51.758;5.784;2023-12-20T07:31:10;101469.52;;;7.09;82.11
80627;BME280;69982;51.758;5.784;2023-12-20T07:33:47;101471.77;;;7.06;82.13
80627;BME280;69982;51.758;5.784;2023-12-20T07:36:23;101473.89;;;7.06;82.10
80627;BME280;69982;51.758;5.784;2023-12-20T07:38:50;101473.05;;;7.06;82.17
80627;BME280;69982;51.758;5.784;2023-12-20T07:41:23;101473.52;;;7.06;82.05
80627;BME280;69982;51.758;5.784;2023-12-20T07:43:52;101470.71;;;7.06;82.12
80627;BME280;69982;51.758;5.784;2023-12-20T07:46:25;101474.87;;;7.01;82.05
80627;BME280;69982;51.758;5.784;2023-12-20T07:48:55;101477.50;;;6.97;82.19
80627;BME280;69982;51.758;5.784;2023-12-20T07:51:24;101474.65;;;6.93;82.27
80627;BME280;69982;51.758;5.784;2023-12-20T07:53:53;101469.09;;;6.88;82.28
80627;BME280;69982;51.758;5.784;2023-12-20T07:56:41;101467.29;;;6.84;82.17
80627;BME280;69982;51.758;5.784;2023-12-20T07:59:13;101470.45;;;6.81;82.28
80627;BME280;69982;51.758;5.784;2023-12-20T08:01:45;101478.46;;;6.80;82.41
80627;BME280;69982;51.758;5.784;2023-12-20T08:04:44;101477.18;;;6.80;82.60
80627;BME280;69982;51.758;5.784;2023-12-20T08:07:20;101479.91;;;6.79;82.64
80627;BME280;69982;51.758;5.784;2023-12-20T08:09:50;101481.36;;;6.77;82.67
80627;BME280;69982;51.758;5.784;2023-12-20T08:12:21;101487.26;;;6.73;82.63
80627;BME280;69982;51.758;5.784;2023-12-20T08:14:51;101487.16;;;6.72;82.68
80627;BME280;69982;51.758;5.784;2023-12-20T08:17:23;101488.34;;;6.73;82.60
80627;BME280;69982;51.758;5.784;2023-12-20T08:19:57;101491.50;;;6.74;82.66
80627;BME280;69982;51.758;5.784;2023-12-20T08:22:25;101493.21;;;6.75;82.71
80627;BME280;69982;51.758;5.784;2023-12-20T08:25:03;101496.07;;;6.74;82.53
80627;BME280;69982;51.758;5.784;2023-12-20T08:27:39;101496.46;;;6.71;82.74
80627;BME280;69982;51.758;5.784;2023-12-20T08:30:23;101497.95;;;6.70;82.86
80627;BME280;69982;51.758;5.784;2023-12-20T08:32:59;101498.86;;;6.72;82.71
80627;BME280;69982;51.758;5.784;2023-12-20T08:35:30;101497.80;;;6.74;82.81
80627;BME280;69982;51.758;5.784;2023-12-20T08:37:58;101496.36;;;6.77;82.76
80627;BME280;69982;51.758;5.784;2023-12-20T08:40:34;101493.58;;;6.77;82.67
80627;BME280;69982;51.758;5.784;2023-12-20T08:43:06;101488.95;;;6.77;82.76
80627;BME280;69982;51.758;5.784;2023-12-20T08:45:56;101490.54;;;6.75;82.76
80627;BME280;69982;51.758;5.784;2023-12-20T08:48:24;101487.08;;;6.76;82.64
80627;BME280;69982;51.758;5.784;2023-12-20T08:50:56;101479.57;;;6.77;82.77
80627;BME280;69982;51.758;5.784;2023-12-20T08:53:25;101473.65;;;6.79;82.64
80627;BME280;69982;51.758;5.784;2023-12-20T08:56:16;101468.72;;;6.80;82.75
80627;BME280;69982;51.758;5.784;2023-12-20T08:59:04;101468.58;;;6.79;82.82
80627;BME280;69982;51.758;5.784;2023-12-20T09:01:35;101469.12;;;6.77;82.65
80627;BME280;69982;51.758;5.784;2023-12-20T09:04:06;101465.69;;;6.75;82.73
80627;BME280;69982;51.758;5.784;2023-12-20T09:06:38;101457.35;;;6.74;82.65
80627;BME280;69982;51.758;5.784;2023-12-20T09:09:28;101456.77;;;6.75;82.70
80627;BME280;69982;51.758;5.784;2023-12-20T09:12:02;101448.83;;;6.75;82.62
80627;BME280;69982;51.758;5.784;2023-12-20T09:14:30;101446.34;;;6.74;82.90
80627;BME280;69982;51.758;5.784;2023-12-20T09:16:59;101446.90;;;6.74;82.83
80627;BME280;69982;51.758;5.784;2023-12-20T09:19:29;101459.68;;;6.74;82.95
80627;BME280;69982;51.758;5.784;2023-12-20T09:22:19;101454.84;;;6.76;82.96
80627;BME280;69982;51.758;5.784;2023-12-20T09:25:02;101460.23;;;6.78;83.05
80627;BME280;69982;51.758;5.784;2023-12-20T09:27:30;101466.48;;;6.79;83.13
80627;BME280;69982;51.758;5.784;2023-12-20T09:30:02;101469.73;;;6.79;83.16
80627;BME280;69982;51.758;5.784;2023-12-20T09:32:35;101466.70;;;6.80;83.08
80627;BME280;69982;51.758;5.784;2023-12-20T09:35:03;101467.30;;;6.84;83.16
80627;BME280;69982;51.758;5.784;2023-12-20T09:37:33;101468.83;;;6.87;83.23
80627;BME280;69982;51.758;5.784;2023-12-20T09:40:01;101463.89;;;6.91;83.30
80627;BME280;69982;51.758;5.784;2023-12-20T09:42:39;101464.64;;;6.92;83.45
80627;BME280;69982;51.758;5.784;2023-12-20T09:45:11;101469.72;;;6.92;83.55
80627;BME280;69982;51.758;5.784;2023-12-20T09:47:45;101470.88;;;6.91;83.59
80627;BME280;69982;51.758;5.784;2023-12-20T09:50:14;101473.34;;;6.94;83.78
80627;BME280;69982;51.758;5.784;2023-12-20T09:52:43;101469.83;;;6.97;83.65
80627;BME280;69982;51.758;5.784;2023-12-20T09:55:13;101473.14;;;6.98;83.74
80627;BME280;69982;51.758;5.784;2023-12-20T09:57:42;101468.96;;;6.99;83.87
80627;BME280;69982;51.758;5.784;2023-12-20T10:00:18;101470.04;;;6.99;83.75
80627;BME280;69982;51.758;5.784;2023-12-20T10:02:57;101468.47;;;7.00;83.76
80627;BME280;69982;51.758;5.784;2023-12-20T10:05:31;101463.25;;;7.02;83.73
80627;BME280;69982;51.758;5.784;2023-12-20T10:08:00;101475.08;;;7.05;83.74
80627;BME280;69982;51.758;5.784;2023-12-20T10:10:28;101475.61;;;7.09;83.74
80627;BME280;69982;51.758;5.784;2023-12-20T10:13:09;101472.74;;;7.13;83.71
80627;BME280;69982;51.758;5.784;2023-12-20T10:15:57;101467.36;;;7.15;83.52
80627;BME280;69982;51.758;5.784;2023-12-20T10:18:25;101469.91;;;7.18;83.49
80627;BME280;69982;51.758;5.784;2023-12-20T10:21:06;101469.88;;;7.20;83.36
80627;BME280;69982;51.758;5.784;2023-12-20T10:23:34;101465.27;;;7.24;83.45
80627;BME280;69982;51.758;5.784;2023-12-20T10:26:02;101470.36;;;7.27;83.44
80627;BME280;69982;51.758;5.784;2023-12-20T10:28:34;101469.31;;;7.31;83.21
80627;BME280;69982;51.758;5.784;2023-12-20T10:31:05;101466.28;;;7.33;83.26
80627;BME280;69982;51.758;5.784;2023-12-20T10:33:34;101459.44;;;7.35;83.32
80627;BME280;69982;51.758;5.784;2023-12-20T10:36:23;101462.85;;;7.37;83.01
80627;BME280;69982;51.758;5.784;2023-12-20T10:38:57;101460.14;;;7.39;82.84
80627;BME280;69982;51.758;5.784;2023-12-20T10:41:28;101451.94;;;7.42;83.01
80627;BME280;69982;51.758;5.784;2023-12-20T10:44:16;101451.02;;;7.45;82.57
80627;BME280;69982;51.758;5.784;2023-12-20T10:46:45;101445.98;;;7.44;83.01
80627;BME280;69982;51.758;5.784;2023-12-20T10:49:31;101444.00;;;7.45;83.02
80627;BME280;69982;51.758;5.784;2023-12-20T10:52:02;101444.03;;;7.46;83.24
80627;BME280;69982;51.758;5.784;2023-12-20T10:54:31;101446.33;;;7.49;83.20
80627;BME280;69982;51.758;5.784;2023-12-20T10:56:59;101448.01;;;7.52;83.09
80627;BME280;69982;51.758;5.784;2023-12-20T10:59:35;101441.58;;;7.54;82.84
80627;BME280;69982;51.758;5.784;2023-12-20T11:02:04;101440.48;;;7.56;83.15
80627;BME280;69982;51.758;5.784;2023-12-20T11:04:59;101445.23;;;7.58;83.28
80627;BME280;69982;51.758;5.784;2023-12-20T11:07:34;101437.85;;;7.61;83.00
80627;BME280;69982;51.758;5.784;2023-12-20T11:10:19;101451.48;;;7.66;82.89
80627;BME280;69982;51.758;5.784;2023-12-20T11:12:57;101444.58;;;7.71;82.77
80627;BME280;69982;51.758;5.784;2023-12-20T11:15:27;101432.21;;;7.74;82.28
80627;BME280;69982;51.758;5.784;2023-12-20T11:17:58;101428.78;;;7.76;82.55
80627;BME280;69982;51.758;5.784;2023-12-20T11:20:38;101427.37;;;7.78;82.33
80627;BME280;69982;51.758;5.784;2023-12-20T11:23:08;101430.48;;;7.82;82.29
80627;BME280;69982;51.758;5.784;2023-12-20T11:25:53;101421.17;;;7.85;82.15
80627;BME280;69982;51.758;5.784;2023-12-20T11:28:23;101420.58;;;7.90;82.04
80627;BME280;69982;51.758;5.784;2023-12-20T11:31:02;101417.14;;;7.94;82.01
80627;BME280;69982;51.758;5.784;2023-12-20T11:33:38;101409.42;;;7.96;82.11
80627;BME280;69982;51.758;5.784;2023-12-20T11:36:32;101406.38;;;7.98;82.01
80627;BME280;69982;51.758;5.784;2023-12-20T11:39:01;101401.89;;;8.00;81.82
80627;BME280;69982;51.758;5.784;2023-12-20T11:41:34;101406.42;;;8.03;81.70
80627;BME280;69982;51.758;5.784;2023-12-20T11:44:04;101402.49;;;8.07;81.97
80627;BME280;69982;51.758;5.784;2023-12-20T11:46:35;101399.92;;;8.11;81.68
80627;BME280;69982;51.758;5.784;2023-12-20T11:49:03;101396.97;;;8.14;81.09
80627;BME280;69982;51.758;5.784;2023-12-20T11:51:32;101398.77;;;8.14;81.17
80627;BME280;69982;51.758;5.784;2023-12-20T11:54:03;101399.38;;;8.13;81.33
80627;BME280;69982;51.758;5.784;2023-12-20T11:56:53;101392.55;;;8.15;81.49
80627;BME280;69982;51.758;5.784;2023-12-20T11:59:23;101391.53;;;8.17;81.23
80627;BME280;69982;51.758;5.784;2023-12-20T12:01:51;101398.36;;;8.17;81.34
80627;BME280;69982;51.758;5.784;2023-12-20T12:04:21;101399.38;;;8.18;81.53
80627;BME280;69982;51.758;5.784;2023-12-20T12:06:51;101397.55;;;8.16;81.64
80627;BME280;69982;51.758;5.784;2023-12-20T12:09:19;101393.99;;;8.17;81.54
80627;BME280;69982;51.758;5.784;2023-12-20T12:11:48;101394.42;;;8.20;81.52
80627;BME280;69982;51.758;5.784;2023-12-20T12:14:21;101386.66;;;8.22;81.63
80627;BME280;69982;51.758;5.784;2023-12-20T12:16:53;101376.75;;;8.24;81.58
80627;BME280;69982;51.758;5.784;2023-12-20T12:19:26;101369.74;;;8.22;81.42
80627;BME280;69982;51.758;5.784;2023-12-20T12:22:16;101366.55;;;8.22;81.83
80627;BME280;69982;51.758;5.784;2023-12-20T12:24:47;101371.14;;;8.23;81.95
80627;BME280;69982;51.758;5.784;2023-12-20T12:27:17;101369.73;;;8.22;82.03
80627;BME280;69982;51.758;5.784;2023-12-20T12:30:04;101369.98;;;8.22;82.24
80627;BME280;69982;51.758;5.784;2023-12-20T12:32:36;101348.59;;;8.23;82.57
80627;BME280;69982;51.758;5.784;2023-12-20T12:35:04;101357.61;;;8.23;82.59
80627;BME280;69982;51.758;5.784;2023-12-20T12:37:38;101357.95;;;8.25;82.59
80627;BME280;69982;51.758;5.784;2023-12-20T12:40:14;101362.08;;;8.27;82.48
80627;BME280;69982;51.758;5.784;2023-12-20T12:42:44;101355.70;;;8.30;82.33
80627;BME280;69982;51.758;5.784;2023-12-20T12:45:16;101351.60;;;8.31;82.46
80627;BME280;69982;51.758;5.784;2023-12-20T12:47:45;101352.23;;;8.32;82.11
80627;BME280;69982;51.758;5.784;2023-12-20T12:50:13;101350.48;;;8.32;82.30
80627;BME280;69982;51.758;5.784;2023-12-20T12:52:41;101349.54;;;8.30;82.22
80627;BME280;69982;51.758;5.784;2023-12-20T12:55:09;101343.43;;;8.32;82.17
80627;BME280;69982;51.758;5.784;2023-12-20T12:57:38;101340.92;;;8.34;82.24
80627;BME280;69982;51.758;5.784;2023-12-20T13:00:12;101337.66;;;8.36;82.02
80627;BME280;69982;51.758;5.784;2023-12-20T13:02:40;101333.34;;;8.38;82.08
80627;BME280;69982;51.758;5.784;2023-12-20T13:05:11;101333.88;;;8.38;82.10
80627;BME280;69982;51.758;5.784;2023-12-20T13:07:42;101324.30;;;8.36;82.16
80627;BME280;69982;51.758;5.784;2023-12-20T13:10:13;101324.58;;;8.35;82.39
80627;BME280;69982;51.758;5.784;2023-12-20T13:12:47;101320.45;;;8.35;82.38
80627;BME280;69982;51.758;5.784;2023-12-20T13:15:16;101314.81;;;8.35;82.22
80627;BME280;69982;51.758;5.784;2023-12-20T13:17:46;101313.77;;;8.37;82.32
80627;BME280;69982;51.758;5.784;2023-12-20T13:20:17;101307.47;;;8.38;82.30
80627;BME280;69982;51.758;5.784;2023-12-20T13:22:45;101307.79;;;8.39;82.28
80627;BME280;69982;51.758;5.784;2023-12-20T13:25:15;101303.96;;;8.37;82.26
80627;BME280;69982;51.758;5.784;2023-12-20T13:27:46;101296.02;;;8.36;82.20
80627;BME280;69982;51.758;5.784;2023-12-20T13:30:16;101292.02;;;8.34;82.36
80627;BME280;69982;51.758;5.784;2023-12-20T13:32:45;101286.77;;;8.34;82.25
80627;BME280;69982;51.758;5.784;2023-12-20T13:35:14;101281.84;;;8.35;82.35
80627;BME280;69982;51.758;5.784;2023-12-20T13:37:44;101275.40;;;8.38;82.54
80627;BME280;69982;51.758;5.784;2023-12-20T13:40:26;101268.23;;;8.42;82.63
80627;BME280;69982;51.758;5.784;2023-12-20T13:42:54;101266.57;;;8.44;82.54
80627;BME280;69982;51.758;5.784;2023-12-20T13:45:23;101269.61;;;8.49;82.75
80627;BME280;69982;51.758;5.784;2023-12-20T13:47:59;101274.20;;;8.50;82.46